sensor_id;sensor_type;location;lat;lon;timestamp;P1;durP1;ratioP1;P2;durP2;ratioP2
68108;SDS011;54893;49.864;19.084;2023-07-31T00:04:35;4.80;;;2.13;;
68108;SDS011;54893;49.864;19.084;2023-07-31T00:09:36;4.73;;;2.17;;
68108;SDS011;54893;49.864;19.084;2023-07-31T00:14:36;5.10;;;2.23;;
68108;SDS011;54893;49.864;19.084;2023-07-31T00:19:36;6.50;;;2.83;;
68108;SDS011;54893;49.864;19.084;2023-07-31T00:24:37;5.13;;;2.35;;
68108;SDS011;54893;49.864;19.084;2023-07-31T00:29:37;5.90;;;2.27;;
68108;SDS011;54893;49.864;19.084;2023-07-31T00:34:38;4.93;;;2.20;;
68108;SDS011;54893;49.864;19.084;2023-07-31T00:39:38;5.45;;;2.20;;
68108;SDS011;54893;49.864;19.084;2023-07-31T00:44:38;5.00;;;2.20;;
68108;SDS011;54893;49.864;19.084;2023-07-31T00:49:39;5.93;;;1.95;;
68108;SDS011;54893;49.864;19.084;2023-07-31T00:54:39;3.70;;;1.90;;
68108;SDS011;54893;49.864;19.084;2023-07-31T00:59:39;4.17;;;2.00;;
68108;SDS011;54893;49.864;19.084;2023-07-31T01:04:41;4.37;;;2.37;;
68108;SDS011;54893;49.864;19.084;2023-07-31T01:09:53;4.20;;;2.30;;
68108;SDS011;54893;49.864;19.084;2023-07-31T01:15:13;6.50;;;2.40;;
68108;SDS011;54893;49.864;19.084;2023-07-31T01:20:24;5.28;;;2.42;;
68108;SDS011;54893;49.864;19.084;2023-07-31T01:25:43;4.82;;;2.45;;
68108;SDS011;54893;49.864;19.084;2023-07-31T01:30:44;4.70;;;2.27;;
68108;SDS011;54893;49.864;19.084;2023-07-31T01:35:48;6.22;;;2.15;;
68108;SDS011;54893;49.864;19.084;2023-07-31T01:40:52;4.27;;;2.33;;
68108;SDS011;54893;49.864;19.084;2023-07-31T01:45:53;4.72;;;2.40;;
68108;SDS011;54893;49.864;19.084;2023-07-31T01:50:53;4.93;;;2.33;;
68108;SDS011;54893;49.864;19.084;2023-07-31T01:55:54;5.13;;;2.33;;
68108;SDS011;54893;49.864;19.084;2023-07-31T02:00:54;9.27;;;3.07;;
68108;SDS011;54893;49.864;19.084;2023-07-31T02:05:54;4.80;;;2.20;;
68108;SDS011;54893;49.864;19.084;2023-07-31T02:10:55;4.77;;;2.53;;
68108;SDS011;54893;49.864;19.084;2023-07-31T02:15:55;4.43;;;2.43;;
68108;SDS011;54893;49.864;19.084;2023-07-31T02:20:56;5.33;;;2.47;;
68108;SDS011;54893;49.864;19.084;2023-07-31T02:25:56;6.47;;;2.78;;
68108;SDS011;54893;49.864;19.084;2023-07-31T02:30:56;5.45;;;3.00;;
68108;SDS011;54893;49.864;19.084;2023-07-31T02:35:57;5.17;;;3.00;;
68108;SDS011;54893;49.864;19.084;2023-07-31T02:40:57;6.10;;;3.13;;
68108;SDS011;54893;49.864;19.084;2023-07-31T02:45:59;7.03;;;3.35;;
68108;SDS011;54893;49.864;19.084;2023-07-31T02:50:59;7.03;;;3.35;;
68108;SDS011;54893;49.864;19.084;2023-07-31T02:55:59;6.63;;;3.57;;
68108;SDS011;54893;49.864;19.084;2023-07-31T03:01:00;7.10;;;2.83;;
68108;SDS011;54893;49.864;19.084;2023-07-31T03:06:00;6.05;;;3.17;;
68108;SDS011;54893;49.864;19.084;2023-07-31T03:11:00;5.50;;;2.77;;
68108;SDS011;54893;49.864;19.084;2023-07-31T03:16:01;5.07;;;2.57;;
68108;SDS011;54893;49.864;19.084;2023-07-31T03:21:01;5.20;;;2.53;;
68108;SDS011;54893;49.864;19.084;2023-07-31T03:26:02;6.03;;;2.80;;
68108;SDS011;54893;49.864;19.084;2023-07-31T03:31:05;6.25;;;2.90;;
68108;SDS011;54893;49.864;19.084;2023-07-31T03:36:06;6.53;;;3.40;;
68108;SDS011;54893;49.864;19.084;2023-07-31T03:41:06;6.00;;;3.47;;
68108;SDS011;54893;49.864;19.084;2023-07-31T03:46:06;7.43;;;3.33;;
68108;SDS011;54893;49.864;19.084;2023-07-31T03:51:07;7.63;;;3.30;;
68108;SDS011;54893;49.864;19.084;2023-07-31T03:56:07;8.23;;;3.47;;
68108;SDS011;54893;49.864;19.084;2023-07-31T04:01:09;6.47;;;3.80;;
68108;SDS011;54893;49.864;19.084;2023-07-31T04:06:09;11.47;;;4.17;;
68108;SDS011;54893;49.864;19.084;2023-07-31T04:11:10;7.18;;;3.80;;
68108;SDS011;54893;49.864;19.084;2023-07-31T04:16:11;8.90;;;3.53;;
68108;SDS011;54893;49.864;19.084;2023-07-31T04:21:12;7.10;;;3.47;;
68108;SDS011;54893;49.864;19.084;2023-07-31T04:26:12;9.23;;;3.43;;
68108;SDS011;54893;49.864;19.084;2023-07-31T04:31:12;8.45;;;3.67;;
68108;SDS011;54893;49.864;19.084;2023-07-31T04:36:13;7.47;;;3.47;;
68108;SDS011;54893;49.864;19.084;2023-07-31T04:41:13;10.83;;;3.70;;
68108;SDS011;54893;49.864;19.084;2023-07-31T04:46:14;7.20;;;3.77;;
68108;SDS011;54893;49.864;19.084;2023-07-31T04:51:14;8.45;;;3.60;;
68108;SDS011;54893;49.864;19.084;2023-07-31T04:56:15;9.00;;;3.73;;
68108;SDS011;54893;49.864;19.084;2023-07-31T05:01:16;10.15;;;4.03;;
68108;SDS011;54893;49.864;19.084;2023-07-31T05:06:16;9.30;;;4.07;;
68108;SDS011;54893;49.864;19.084;2023-07-31T05:11:16;7.25;;;3.72;;
68108;SDS011;54893;49.864;19.084;2023-07-31T05:16:17;8.17;;;3.87;;
68108;SDS011;54893;49.864;19.084;2023-07-31T05:21:17;8.73;;;4.17;;
68108;SDS011;54893;49.864;19.084;2023-07-31T05:26:18;8.57;;;3.70;;
68108;SDS011;54893;49.864;19.084;2023-07-31T05:31:18;7.72;;;2.92;;
68108;SDS011;54893;49.864;19.084;2023-07-31T05:36:18;6.70;;;3.25;;
68108;SDS011;54893;49.864;19.084;2023-07-31T05:41:19;6.50;;;3.80;;
68108;SDS011;54893;49.864;19.084;2023-07-31T05:46:19;6.53;;;3.40;;
68108;SDS011;54893;49.864;19.084;2023-07-31T05:51:19;8.38;;;3.40;;
68108;SDS011;54893;49.864;19.084;2023-07-31T05:56:19;6.43;;;2.80;;
68108;SDS011;54893;49.864;19.084;2023-07-31T06:01:20;8.27;;;3.20;;
68108;SDS011;54893;49.864;19.084;2023-07-31T06:06:21;6.38;;;3.10;;
68108;SDS011;54893;49.864;19.084;2023-07-31T06:11:21;7.33;;;2.67;;
68108;SDS011;54893;49.864;19.084;2023-07-31T06:16:22;5.83;;;2.93;;
68108;SDS011;54893;49.864;19.084;2023-07-31T06:21:23;6.83;;;3.10;;
68108;SDS011;54893;49.864;19.084;2023-07-31T06:26:23;7.53;;;3.10;;
68108;SDS011;54893;49.864;19.084;2023-07-31T06:31:23;5.83;;;2.60;;
68108;SDS011;54893;49.864;19.084;2023-07-31T06:36:24;6.90;;;2.77;;
68108;SDS011;54893;49.864;19.084;2023-07-31T06:41:24;5.90;;;2.77;;
68108;SDS011;54893;49.864;19.084;2023-07-31T06:46:24;7.18;;;2.45;;
68108;SDS011;54893;49.864;19.084;2023-07-31T06:51:25;6.18;;;2.50;;
68108;SDS011;54893;49.864;19.084;2023-07-31T06:56:25;5.93;;;2.70;;
68108;SDS011;54893;49.864;19.084;2023-07-31T07:01:26;5.75;;;2.70;;
68108;SDS011;54893;49.864;19.084;2023-07-31T07:06:27;6.57;;;2.58;;
68108;SDS011;54893;49.864;19.084;2023-07-31T07:11:28;6.03;;;2.30;;
68108;SDS011;54893;49.864;19.084;2023-07-31T07:16:28;5.77;;;2.30;;
68108;SDS011;54893;49.864;19.084;2023-07-31T07:21:29;7.10;;;2.10;;
68108;SDS011;54893;49.864;19.084;2023-07-31T07:26:29;7.63;;;2.55;;
68108;SDS011;54893;49.864;19.084;2023-07-31T07:31:29;7.88;;;2.55;;
68108;SDS011;54893;49.864;19.084;2023-07-31T07:36:30;5.83;;;2.43;;
68108;SDS011;54893;49.864;19.084;2023-07-31T07:41:32;6.18;;;2.20;;
68108;SDS011;54893;49.864;19.084;2023-07-31T07:46:32;6.40;;;2.90;;
68108;SDS011;54893;49.864;19.084;2023-07-31T07:51:33;7.57;;;3.03;;
68108;SDS011;54893;49.864;19.084;2023-07-31T07:56:33;5.47;;;2.80;;
68108;SDS011;54893;49.864;19.084;2023-07-31T08:01:36;5.90;;;2.50;;
68108;SDS011;54893;49.864;19.084;2023-07-31T08:06:36;6.07;;;2.43;;
68108;SDS011;54893;49.864;19.084;2023-07-31T08:11:36;8.63;;;2.70;;
68108;SDS011;54893;49.864;19.084;2023-07-31T08:16:37;5.20;;;2.57;;
68108;SDS011;54893;49.864;19.084;2023-07-31T08:21:37;9.20;;;3.80;;
68108;SDS011;54893;49.864;19.084;2023-07-31T08:26:37;6.30;;;2.90;;
68108;SDS011;54893;49.864;19.084;2023-07-31T08:31:38;6.47;;;2.90;;
68108;SDS011;54893;49.864;19.084;2023-07-31T08:36:38;7.80;;;2.70;;
68108;SDS011;54893;49.864;19.084;2023-07-31T08:41:39;4.87;;;2.40;;
68108;SDS011;54893;49.864;19.084;2023-07-31T08:46:39;5.13;;;2.33;;
68108;SDS011;54893;49.864;19.084;2023-07-31T08:51:40;5.10;;;2.42;;
68108;SDS011;54893;49.864;19.084;2023-07-31T08:56:41;10.83;;;3.30;;
68108;SDS011;54893;49.864;19.084;2023-07-31T09:01:43;7.38;;;2.60;;
68108;SDS011;54893;49.864;19.084;2023-07-31T09:06:49;5.93;;;2.73;;
68108;SDS011;54893;49.864;19.084;2023-07-31T09:11:54;5.93;;;2.47;;
68108;SDS011;54893;49.864;19.084;2023-07-31T09:16:56;5.18;;;2.50;;
68108;SDS011;54893;49.864;19.084;2023-07-31T09:21:58;5.13;;;2.37;;
68108;SDS011;54893;49.864;19.084;2023-07-31T09:26:59;5.47;;;2.90;;
68108;SDS011;54893;49.864;19.084;2023-07-31T09:32:00;4.72;;;2.50;;
68108;SDS011;54893;49.864;19.084;2023-07-31T09:37:01;5.20;;;2.50;;
68108;SDS011;54893;49.864;19.084;2023-07-31T09:42:02;5.10;;;2.70;;
68108;SDS011;54893;49.864;19.084;2023-07-31T09:47:03;6.65;;;2.28;;
68108;SDS011;54893;49.864;19.084;2023-07-31T09:52:04;5.63;;;2.70;;
68108;SDS011;54893;49.864;19.084;2023-07-31T09:57:12;6.15;;;2.92;;
68108;SDS011;54893;49.864;19.084;2023-07-31T10:02:14;5.40;;;2.72;;
68108;SDS011;54893;49.864;19.084;2023-07-31T10:07:18;6.28;;;2.80;;
68108;SDS011;54893;49.864;19.084;2023-07-31T10:12:22;6.63;;;2.80;;
68108;SDS011;54893;49.864;19.084;2023-07-31T10:17:29;5.00;;;2.73;;
68108;SDS011;54893;49.864;19.084;2023-07-31T10:22:31;4.90;;;2.60;;
68108;SDS011;54893;49.864;19.084;2023-07-31T10:27:32;4.68;;;2.50;;
68108;SDS011;54893;49.864;19.084;2023-07-31T10:32:36;5.82;;;2.45;;
68108;SDS011;54893;49.864;19.084;2023-07-31T10:37:39;6.00;;;2.47;;
68108;SDS011;54893;49.864;19.084;2023-07-31T10:42:48;6.60;;;2.70;;
68108;SDS011;54893;49.864;19.084;2023-07-31T10:47:49;5.50;;;2.60;;
68108;SDS011;54893;49.864;19.084;2023-07-31T10:53:01;5.72;;;2.80;;
68108;SDS011;54893;49.864;19.084;2023-07-31T10:58:12;5.10;;;2.13;;
68108;SDS011;54893;49.864;19.084;2023-07-31T11:03:14;5.50;;;2.75;;
68108;SDS011;54893;49.864;19.084;2023-07-31T11:13:20;4.93;;;2.30;;
68108;SDS011;54893;49.864;19.084;2023-07-31T11:18:20;9.03;;;3.50;;
68108;SDS011;54893;49.864;19.084;2023-07-31T11:23:21;6.07;;;2.70;;
68108;SDS011;54893;49.864;19.084;2023-07-31T11:28:22;6.43;;;2.35;;
68108;SDS011;54893;49.864;19.084;2023-07-31T11:33:23;4.73;;;2.10;;
68108;SDS011;54893;49.864;19.084;2023-07-31T11:43:25;4.50;;;2.10;;
68108;SDS011;54893;49.864;19.084;2023-07-31T11:48:27;5.47;;;2.20;;
68108;SDS011;54893;49.864;19.084;2023-07-31T11:58:46;5.18;;;2.17;;
68108;SDS011;54893;49.864;19.084;2023-07-31T12:03:48;4.85;;;2.10;;
68108;SDS011;54893;49.864;19.084;2023-07-31T12:08:50;5.20;;;2.30;;
68108;SDS011;54893;49.864;19.084;2023-07-31T12:13:50;12.30;;;8.90;;
68108;SDS011;54893;49.864;19.084;2023-07-31T12:18:50;4.80;;;2.23;;
68108;SDS011;54893;49.864;19.084;2023-07-31T12:23:51;3.73;;;1.97;;
68108;SDS011;54893;49.864;19.084;2023-07-31T12:28:54;4.43;;;2.00;;
68108;SDS011;54893;49.864;19.084;2023-07-31T12:33:55;4.53;;;2.00;;
68108;SDS011;54893;49.864;19.084;2023-07-31T12:38:56;4.60;;;1.95;;
68108;SDS011;54893;49.864;19.084;2023-07-31T12:43:58;4.75;;;1.90;;
68108;SDS011;54893;49.864;19.084;2023-07-31T12:48:59;4.87;;;2.00;;
68108;SDS011;54893;49.864;19.084;2023-07-31T12:53:59;5.57;;;2.30;;
68108;SDS011;54893;49.864;19.084;2023-07-31T12:58:59;6.37;;;2.20;;
68108;SDS011;54893;49.864;19.084;2023-07-31T13:04:00;8.10;;;2.10;;
68108;SDS011;54893;49.864;19.084;2023-07-31T13:09:00;4.17;;;2.00;;
68108;SDS011;54893;49.864;19.084;2023-07-31T13:14:00;4.40;;;2.23;;
68108;SDS011;54893;49.864;19.084;2023-07-31T13:19:01;5.90;;;2.00;;
68108;SDS011;54893;49.864;19.084;2023-07-31T13:24:01;4.27;;;2.00;;
68108;SDS011;54893;49.864;19.084;2023-07-31T13:29:02;5.00;;;2.20;;
68108;SDS011;54893;49.864;19.084;2023-07-31T13:34:02;6.43;;;1.93;;
68108;SDS011;54893;49.864;19.084;2023-07-31T13:39:03;4.32;;;2.30;;
68108;SDS011;54893;49.864;19.084;2023-07-31T13:44:04;6.33;;;2.13;;
68108;SDS011;54893;49.864;19.084;2023-07-31T13:49:04;4.40;;;1.90;;
68108;SDS011;54893;49.864;19.084;2023-07-31T13:54:05;7.80;;;2.13;;
68108;SDS011;54893;49.864;19.084;2023-07-31T13:59:06;3.83;;;1.80;;
68108;SDS011;54893;49.864;19.084;2023-07-31T14:04:07;3.87;;;1.93;;
68108;SDS011;54893;49.864;19.084;2023-07-31T14:09:07;4.17;;;1.93;;
68108;SDS011;54893;49.864;19.084;2023-07-31T14:14:08;6.97;;;2.17;;
68108;SDS011;54893;49.864;19.084;2023-07-31T14:19:09;5.20;;;1.80;;
68108;SDS011;54893;49.864;19.084;2023-07-31T14:24:10;5.00;;;1.93;;
68108;SDS011;54893;49.864;19.084;2023-07-31T14:29:10;5.37;;;1.90;;
68108;SDS011;54893;49.864;19.084;2023-07-31T14:34:11;4.50;;;2.07;;
68108;SDS011;54893;49.864;19.084;2023-07-31T14:39:11;3.80;;;1.70;;
68108;SDS011;54893;49.864;19.084;2023-07-31T14:44:11;4.77;;;2.00;;
68108;SDS011;54893;49.864;19.084;2023-07-31T14:49:12;4.50;;;1.63;;
68108;SDS011;54893;49.864;19.084;2023-07-31T14:54:12;3.57;;;1.50;;
68108;SDS011;54893;49.864;19.084;2023-07-31T14:59:12;5.03;;;1.80;;
68108;SDS011;54893;49.864;19.084;2023-07-31T15:04:13;3.80;;;1.53;;
68108;SDS011;54893;49.864;19.084;2023-07-31T15:09:13;3.90;;;1.50;;
68108;SDS011;54893;49.864;19.084;2023-07-31T15:14:13;5.20;;;1.50;;
68108;SDS011;54893;49.864;19.084;2023-07-31T15:19:14;4.03;;;1.50;;
68108;SDS011;54893;49.864;19.084;2023-07-31T15:24:15;6.22;;;1.63;;
68108;SDS011;54893;49.864;19.084;2023-07-31T15:29:15;5.17;;;1.20;;
68108;SDS011;54893;49.864;19.084;2023-07-31T15:34:19;4.45;;;1.70;;
68108;SDS011;54893;49.864;19.084;2023-07-31T15:39:20;4.07;;;1.45;;
68108;SDS011;54893;49.864;19.084;2023-07-31T15:44:20;4.40;;;1.80;;
68108;SDS011;54893;49.864;19.084;2023-07-31T15:49:21;3.90;;;1.50;;
68108;SDS011;54893;49.864;19.084;2023-07-31T15:54:21;4.23;;;1.60;;
68108;SDS011;54893;49.864;19.084;2023-07-31T15:59:22;4.63;;;1.67;;
68108;SDS011;54893;49.864;19.084;2023-07-31T16:04:23;6.03;;;2.03;;
68108;SDS011;54893;49.864;19.084;2023-07-31T16:09:23;4.57;;;1.92;;
68108;SDS011;54893;49.864;19.084;2023-07-31T16:14:23;4.93;;;1.83;;
68108;SDS011;54893;49.864;19.084;2023-07-31T16:19:24;3.60;;;1.73;;
68108;SDS011;54893;49.864;19.084;2023-07-31T16:24:24;4.63;;;1.83;;
68108;SDS011;54893;49.864;19.084;2023-07-31T16:29:24;4.60;;;1.83;;
68108;SDS011;54893;49.864;19.084;2023-07-31T16:34:25;4.95;;;1.80;;
68108;SDS011;54893;49.864;19.084;2023-07-31T16:39:26;5.70;;;2.33;;
68108;SDS011;54893;49.864;19.084;2023-07-31T16:44:26;7.82;;;2.20;;
68108;SDS011;54893;49.864;19.084;2023-07-31T16:49:27;5.17;;;2.10;;
68108;SDS011;54893;49.864;19.084;2023-07-31T16:54:27;5.30;;;2.70;;
68108;SDS011;54893;49.864;19.084;2023-07-31T16:59:27;6.77;;;2.47;;
68108;SDS011;54893;49.864;19.084;2023-07-31T17:04:28;5.17;;;1.80;;
68108;SDS011;54893;49.864;19.084;2023-07-31T17:09:30;5.43;;;2.10;;
68108;SDS011;54893;49.864;19.084;2023-07-31T17:14:31;5.97;;;1.93;;
68108;SDS011;54893;49.864;19.084;2023-07-31T17:19:31;5.10;;;2.25;;
68108;SDS011;54893;49.864;19.084;2023-07-31T17:24:31;7.50;;;2.30;;
68108;SDS011;54893;49.864;19.084;2023-07-31T17:29:31;7.50;;;2.53;;
68108;SDS011;54893;49.864;19.084;2023-07-31T17:34:32;5.18;;;2.28;;
68108;SDS011;54893;49.864;19.084;2023-07-31T17:39:32;4.87;;;2.30;;
68108;SDS011;54893;49.864;19.084;2023-07-31T17:44:33;5.10;;;2.20;;
68108;SDS011;54893;49.864;19.084;2023-07-31T17:49:33;5.32;;;2.10;;
68108;SDS011;54893;49.864;19.084;2023-07-31T17:54:33;5.87;;;1.97;;
68108;SDS011;54893;49.864;19.084;2023-07-31T17:59:34;6.30;;;2.27;;
68108;SDS011;54893;49.864;19.084;2023-07-31T18:04:34;6.63;;;2.17;;
68108;SDS011;54893;49.864;19.084;2023-07-31T18:09:34;9.20;;;2.43;;
68108;SDS011;54893;49.864;19.084;2023-07-31T18:14:35;7.63;;;2.50;;
68108;SDS011;54893;49.864;19.084;2023-07-31T18:19:37;7.47;;;2.50;;
68108;SDS011;54893;49.864;19.084;2023-07-31T18:24:38;7.43;;;3.10;;
68108;SDS011;54893;49.864;19.084;2023-07-31T18:29:38;10.32;;;3.40;;
68108;SDS011;54893;49.864;19.084;2023-07-31T18:34:38;8.90;;;3.50;;
68108;SDS011;54893;49.864;19.084;2023-07-31T18:39:38;7.73;;;3.40;;
68108;SDS011;54893;49.864;19.084;2023-07-31T18:44:39;7.33;;;3.40;;
68108;SDS011;54893;49.864;19.084;2023-07-31T18:49:39;9.45;;;3.05;;
68108;SDS011;54893;49.864;19.084;2023-07-31T18:54:39;6.53;;;2.90;;
68108;SDS011;54893;49.864;19.084;2023-07-31T18:59:40;7.45;;;3.10;;
68108;SDS011;54893;49.864;19.084;2023-07-31T19:04:40;7.63;;;3.07;;
68108;SDS011;54893;49.864;19.084;2023-07-31T19:09:40;7.25;;;3.22;;
68108;SDS011;54893;49.864;19.084;2023-07-31T19:14:41;7.50;;;3.93;;
68108;SDS011;54893;49.864;19.084;2023-07-31T19:19:41;6.73;;;3.00;;
68108;SDS011;54893;49.864;19.084;2023-07-31T19:24:41;5.77;;;3.03;;
68108;SDS011;54893;49.864;19.084;2023-07-31T19:29:42;8.70;;;3.37;;
68108;SDS011;54893;49.864;19.084;2023-07-31T19:34:42;9.00;;;3.90;;
68108;SDS011;54893;49.864;19.084;2023-07-31T19:39:42;8.52;;;3.80;;
68108;SDS011;54893;49.864;19.084;2023-07-31T19:44:43;12.02;;;4.60;;
68108;SDS011;54893;49.864;19.084;2023-07-31T19:49:43;13.10;;;5.20;;
68108;SDS011;54893;49.864;19.084;2023-07-31T19:54:44;11.47;;;5.10;;
68108;SDS011;54893;49.864;19.084;2023-07-31T19:59:44;12.88;;;5.32;;
68108;SDS011;54893;49.864;19.084;2023-07-31T20:04:44;13.30;;;5.43;;
68108;SDS011;54893;49.864;19.084;2023-07-31T20:09:45;13.93;;;5.28;;
68108;SDS011;54893;49.864;19.084;2023-07-31T20:14:45;14.83;;;5.80;;
68108;SDS011;54893;49.864;19.084;2023-07-31T20:19:45;15.07;;;5.50;;
68108;SDS011;54893;49.864;19.084;2023-07-31T20:24:46;13.20;;;5.03;;
68108;SDS011;54893;49.864;19.084;2023-07-31T20:29:46;9.73;;;4.45;;
68108;SDS011;54893;49.864;19.084;2023-07-31T20:34:47;12.13;;;4.20;;
68108;SDS011;54893;49.864;19.084;2023-07-31T20:39:47;10.57;;;4.40;;
68108;SDS011;54893;49.864;19.084;2023-07-31T20:44:47;12.10;;;4.60;;
68108;SDS011;54893;49.864;19.084;2023-07-31T20:49:48;10.37;;;4.77;;
68108;SDS011;54893;49.864;19.084;2023-07-31T20:54:49;8.60;;;3.93;;
68108;SDS011;54893;49.864;19.084;2023-07-31T20:59:51;9.45;;;3.70;;
68108;SDS011;54893;49.864;19.084;2023-07-31T21:04:52;7.87;;;3.30;;
68108;SDS011;54893;49.864;19.084;2023-07-31T21:09:52;7.97;;;3.30;;
68108;SDS011;54893;49.864;19.084;2023-07-31T21:14:52;8.67;;;3.27;;
68108;SDS011;54893;49.864;19.084;2023-07-31T21:19:53;8.43;;;3.30;;
68108;SDS011;54893;49.864;19.084;2023-07-31T21:24:53;8.90;;;3.57;;
68108;SDS011;54893;49.864;19.084;2023-07-31T21:29:53;6.63;;;3.40;;
68108;SDS011;54893;49.864;19.084;2023-07-31T21:34:54;6.83;;;3.30;;
68108;SDS011;54893;49.864;19.084;2023-07-31T21:39:54;9.23;;;3.67;;
68108;SDS011;54893;49.864;19.084;2023-07-31T21:44:55;9.55;;;3.53;;
68108;SDS011;54893;49.864;19.084;2023-07-31T21:49:55;5.63;;;2.80;;
68108;SDS011;54893;49.864;19.084;2023-07-31T21:54:55;6.83;;;2.90;;
68108;SDS011;54893;49.864;19.084;2023-07-31T21:59:56;6.73;;;2.90;;
68108;SDS011;54893;49.864;19.084;2023-07-31T22:04:56;6.13;;;2.92;;
68108;SDS011;54893;49.864;19.084;2023-07-31T22:09:56;6.93;;;3.30;;
68108;SDS011;54893;49.864;19.084;2023-07-31T22:14:57;11.07;;;3.50;;
68108;SDS011;54893;49.864;19.084;2023-07-31T22:19:57;10.73;;;3.53;;
68108;SDS011;54893;49.864;19.084;2023-07-31T22:24:57;7.27;;;3.07;;
68108;SDS011;54893;49.864;19.084;2023-07-31T22:29:58;7.97;;;3.85;;
68108;SDS011;54893;49.864;19.084;2023-07-31T22:34:58;6.97;;;3.03;;
68108;SDS011;54893;49.864;19.084;2023-07-31T22:39:58;7.05;;;3.10;;
68108;SDS011;54893;49.864;19.084;2023-07-31T22:44:59;6.82;;;3.50;;
68108;SDS011;54893;49.864;19.084;2023-07-31T22:49:59;9.38;;;4.03;;
68108;SDS011;54893;49.864;19.084;2023-07-31T23:01:03;9.15;;;3.10;;
68108;SDS011;54893;49.864;19.084;2023-07-31T23:06:05;8.07;;;2.67;;
68108;SDS011;54893;49.864;19.084;2023-07-31T23:11:05;7.65;;;3.17;;
68108;SDS011;54893;49.864;19.084;2023-07-31T23:16:06;7.43;;;3.20;;
68108;SDS011;54893;49.864;19.084;2023-07-31T23:21:06;6.80;;;2.83;;
68108;SDS011;54893;49.864;19.084;2023-07-31T23:26:07;6.10;;;2.93;;
68108;SDS011;54893;49.864;19.084;2023-07-31T23:31:07;7.93;;;2.42;;
68108;SDS011;54893;49.864;19.084;2023-07-31T23:36:08;6.27;;;2.30;;
68108;SDS011;54893;49.864;19.084;2023-07-31T23:41:09;6.80;;;2.08;;
68108;SDS011;54893;49.864;19.084;2023-07-31T23:46:10;4.10;;;1.87;;
68108;SDS011;54893;49.864;19.084;2023-07-31T23:51:10;4.30;;;1.90;;
68108;SDS011;54893;49.864;19.084;2023-07-31T23:56:11;5.97;;;2.00;;
